Главная страница
METAR-TAF:

METAR-TAF

Аэропорты :

Нариманово

Астрахань, Россия

широта: 46-17N, долгота: 048-00-23E, высота над уровнем моря: 0 м

Текущие метеонаблюдения

Эта сводка был подготовлена 41 минут назад, в 02:00 UTC
Ветер 8 Узел от западный-юго-западный
Температура 23°C
Влажность 41%
Давление 1011 hPa
Видимость 10 км и более
Нет облачности ниже 1500 м, и нет кучево-дождевой облачности

METAR: URWA 210200Z 24004MPS CAVOK 23/09 Q1011 R09/010070 NOSIG RMK QFE760/1014

Время: 05:41 (02:41 UTC)

Прогноз

Эта сводка был подготовлена 41 минут назад, в 02:00 UTC
Прогноз действительный с 21-го 03 UTC до 21-го 12 UTC
Ветер 12 Узел от юго-западный с порывами до 21 Узел
Видимость 10 км и более
Отдельные облака на высоте 3000 фута
временами
С 21-го 09 UTC до 21-го 12 UTC
Ветер 16 Узел от западно-северо-западный с порывами до 25 Узел
Отдельные облака на высоте 2000 фута, Кучево-дождевые.
небольшие ливневые дожди

TAF: URWA 210200Z 2103/2112 23006G11MPS 9999 SCT030 TEMPO 2109/2112 30008G13MPS -SHRA SCT020CB

Метеонаблюдения и прогнозы для более 4000 аэропортов (сводки METAR и TAF).

Имеющиеся станции представлены на карте желтыми и красными точками.

Чтобы увидеть название станции, наведите на нее мышь.

Затем щелкните, чтобы увидеть метеонаблюдения и метеопрогнозы.

Управление картой: чтобы увеличить масштаб, щелкните зеленые кнопки с черным крестиком; чтобы уменьшить масштаб, щелкните зеленую кнопку с тире; для просмотра соседних карт щелкайте зеленые стрелки.


METAR-TAF: